createdAt,value
2022-11-13T00:01:40.611Z,3.30
2022-11-13T00:04:50.861Z,3.28
2022-11-13T00:08:01.443Z,3.26
2022-11-13T00:11:14.941Z,3.26
2022-11-13T00:14:25.756Z,3.23
2022-11-13T00:17:36.574Z,3.23
2022-11-13T00:20:47.361Z,3.22
2022-11-13T00:23:58.703Z,3.21
2022-11-13T00:27:10.126Z,3.20
2022-11-13T00:30:20.934Z,3.22
2022-11-13T00:34:02.078Z,3.21
2022-11-13T00:37:03.251Z,3.19
2022-11-13T00:40:15.700Z,3.19
2022-11-13T00:43:27.012Z,3.19
2022-11-13T00:46:37.462Z,3.14
2022-11-13T00:49:47.905Z,3.11
2022-11-13T00:52:58.638Z,3.09
2022-11-13T00:56:10.083Z,3.06
2022-11-13T00:59:20.838Z,3.03
2022-11-13T01:02:31.673Z,3.00
2022-11-13T01:05:43.620Z,2.97
2022-11-13T01:08:57.892Z,2.94
2022-11-13T01:12:08.890Z,2.91
2022-11-13T01:15:19.496Z,2.86
2022-11-13T01:18:30.896Z,2.85
2022-11-13T01:21:41.737Z,2.81
2022-11-13T01:24:52.013Z,2.78
2022-11-13T01:28:03.457Z,2.75
2022-11-13T01:31:17.754Z,2.73
2022-11-13T01:34:29.181Z,2.69
2022-11-13T01:37:39.411Z,2.68
2022-11-13T01:40:51.117Z,2.66
2022-11-13T01:44:02.833Z,2.64
2022-11-13T01:47:13.270Z,2.62
2022-11-13T01:50:23.549Z,2.59
2022-11-13T01:53:35.445Z,2.58
2022-11-13T01:56:48.973Z,2.56
2022-11-13T02:00:04.166Z,2.54
2022-11-13T02:03:14.840Z,2.53
2022-11-13T02:06:26.931Z,2.52
2022-11-13T02:09:42.333Z,2.49
2022-11-13T02:12:53.885Z,2.47
2022-11-13T02:16:05.391Z,2.46
2022-11-13T02:19:23.524Z,2.45
2022-11-13T02:22:39.105Z,2.43
2022-11-13T02:25:53.687Z,2.41
2022-11-13T02:29:04.572Z,2.41
2022-11-13T02:32:15.539Z,2.41
2022-11-13T02:35:31.459Z,2.40
2022-11-13T02:38:44.938Z,2.40
2022-11-13T02:41:55.993Z,2.41
2022-11-13T02:45:07.088Z,2.39
2022-11-13T02:48:17.973Z,2.38
2022-11-13T02:51:29.885Z,2.38
2022-11-13T02:54:40.638Z,2.37
2022-11-13T02:57:51.059Z,2.37
2022-11-13T03:01:04.664Z,2.37
2022-11-13T03:04:15.723Z,2.36
2022-11-13T03:07:26.281Z,2.36
2022-11-13T03:10:38.149Z,2.35
2022-11-13T03:13:48.860Z,2.34
2022-11-13T03:16:59.795Z,2.33
2022-11-13T03:20:12.153Z,2.30
2022-11-13T03:23:22.414Z,2.31
2022-11-13T03:26:32.875Z,2.30
2022-11-13T03:29:43.163Z,2.29
2022-11-13T03:32:57.067Z,2.27
2022-11-13T03:36:09.252Z,2.25
2022-11-13T03:39:21.070Z,2.24
2022-11-13T03:42:32.254Z,2.23
2022-11-13T03:45:43.402Z,2.22
2022-11-13T03:48:54.029Z,2.20
2022-11-13T03:52:04.663Z,2.19
2022-11-13T03:55:15.046Z,2.19
2022-11-13T03:58:25.941Z,2.17
2022-11-13T04:01:38.678Z,2.18
2022-11-13T04:04:49.457Z,2.16
2022-11-13T04:08:00.884Z,2.15
2022-11-13T04:11:14.408Z,2.14
2022-11-13T04:14:25.759Z,2.12
2022-11-13T04:17:36.427Z,2.10
2022-11-13T04:20:47.280Z,2.09
2022-11-13T04:23:57.926Z,2.05
2022-11-13T04:27:10.773Z,2.03
2022-11-13T04:30:21.848Z,2.00
2022-11-13T04:33:32.298Z,1.96
2022-11-13T04:36:43.233Z,1.95
2022-11-13T04:39:53.980Z,1.94
2022-11-13T04:43:05.062Z,1.93
2022-11-13T04:46:15.505Z,1.92
2022-11-13T04:49:26.064Z,1.87
2022-11-13T04:52:36.392Z,1.86
2022-11-13T04:55:48.218Z,1.81
2022-11-13T04:59:01.841Z,1.79
2022-11-13T05:02:13.086Z,1.78
2022-11-13T05:05:23.811Z,1.74
2022-11-13T05:08:34.304Z,1.75
2022-11-13T05:11:44.781Z,1.73
2022-11-13T05:14:55.383Z,1.71
2022-11-13T05:18:08.893Z,1.70
2022-11-13T05:21:19.926Z,1.69
2022-11-13T05:24:30.824Z,1.69
2022-11-13T05:27:41.798Z,1.68
2022-11-13T05:30:52.627Z,1.65
2022-11-13T05:34:05.936Z,1.64
2022-11-13T05:37:17.265Z,1.65
2022-11-13T05:40:27.619Z,1.65
2022-11-13T05:43:40.206Z,1.66
2022-11-13T05:46:50.981Z,1.67
2022-11-13T05:50:00.987Z,1.70
2022-11-13T05:53:11.596Z,1.72
2022-11-13T05:56:24.157Z,1.72
2022-11-13T05:59:34.629Z,1.76
2022-11-13T06:02:45.179Z,1.80
2022-11-13T06:05:55.712Z,1.83
2022-11-13T06:09:08.344Z,1.86
2022-11-13T06:12:19.265Z,1.90
2022-11-13T06:15:30.293Z,1.92
2022-11-13T06:18:42.911Z,1.96
2022-11-13T06:21:54.091Z,1.98
2022-11-13T06:25:08.238Z,2.05
2022-11-13T06:28:18.437Z,2.10
2022-11-13T06:31:31.939Z,2.16
2022-11-13T06:34:42.577Z,2.23
2022-11-13T06:37:52.851Z,2.26
2022-11-13T06:41:04.577Z,2.31
2022-11-13T06:44:15.280Z,2.36
2022-11-13T06:47:25.987Z,2.44
2022-11-13T06:50:38.082Z,2.51
2022-11-13T06:53:49.507Z,2.58
2022-11-13T06:56:59.987Z,2.68
2022-11-13T07:00:13.918Z,2.77
2022-11-13T07:03:28.845Z,2.88
2022-11-13T07:06:40.640Z,2.98
2022-11-13T07:09:51.928Z,3.13
2022-11-13T07:13:03.658Z,3.27
2022-11-13T07:16:17.722Z,3.42
2022-11-13T07:19:29.337Z,3.57
2022-11-13T07:22:40.058Z,3.75
2022-11-13T07:25:50.100Z,3.92
2022-11-13T07:29:01.602Z,4.07
2022-11-13T07:32:12.521Z,4.22
2022-11-13T07:35:46.068Z,4.42
2022-11-13T07:39:44.233Z,4.62
2022-11-13T07:43:17.014Z,4.86
2022-11-13T07:46:29.351Z,5.12
2022-11-13T07:49:40.413Z,5.33
2022-11-13T07:52:55.981Z,5.55
2022-11-13T07:56:18.919Z,5.80
2022-11-13T07:59:35.461Z,6.04
2022-11-13T08:02:50.690Z,6.27
2022-11-13T08:06:33.390Z,6.49
2022-11-13T08:09:44.127Z,6.74
2022-11-13T08:13:02.431Z,6.97
2022-11-13T08:16:14.207Z,7.19
2022-11-13T08:19:25.233Z,7.42
2022-11-13T08:22:36.284Z,7.62
2022-11-13T08:25:47.110Z,7.85
2022-11-13T08:28:58.196Z,8.10
2022-11-13T08:32:09.924Z,8.30
2022-11-13T08:35:25.203Z,8.50
2022-11-13T08:38:41.417Z,8.72
2022-11-13T08:41:52.654Z,8.93
2022-11-13T08:45:03.562Z,9.13
2022-11-13T08:48:17.752Z,9.33
2022-11-13T08:51:28.481Z,9.54
2022-11-13T08:54:40.840Z,9.74
2022-11-13T08:58:07.128Z,9.92
2022-11-13T09:01:42.675Z,10.13
2022-11-13T09:05:14.092Z,10.32
2022-11-13T09:08:34.143Z,10.53
2022-11-13T09:11:48.044Z,10.70
2022-11-13T09:15:24.825Z,10.89
2022-11-13T09:18:36.073Z,11.09
2022-11-13T09:21:48.281Z,11.24
2022-11-13T09:24:59.881Z,11.43
2022-11-13T09:28:15.788Z,11.57
2022-11-13T09:31:36.021Z,11.74
2022-11-13T09:34:48.361Z,11.93
2022-11-13T09:38:09.452Z,12.08
2022-11-13T09:41:27.429Z,12.21
2022-11-13T09:44:54.657Z,12.37
2022-11-13T09:48:22.705Z,12.51
2022-11-13T09:51:38.160Z,12.66
2022-11-13T09:54:58.045Z,12.78
2022-11-13T09:58:24.575Z,12.91
2022-11-13T10:01:49.783Z,13.04
2022-11-13T10:05:08.274Z,13.17
2022-11-13T10:08:34.915Z,13.30
2022-11-13T10:11:55.775Z,13.43
2022-11-13T10:15:11.792Z,13.54
2022-11-13T10:18:57.427Z,13.66
2022-11-13T10:22:35.539Z,13.79
2022-11-13T10:25:48.269Z,13.90
2022-11-13T10:32:56.359Z,14.10
2022-11-13T10:36:18.678Z,14.19
2022-11-13T10:39:29.449Z,14.28
2022-11-13T10:42:43.732Z,14.38
2022-11-13T10:46:11.739Z,14.45
2022-11-13T10:49:30.413Z,14.52
2022-11-13T10:52:58.400Z,14.61
2022-11-13T10:56:28.213Z,14.70
2022-11-13T10:59:46.046Z,14.78
2022-11-13T11:02:57.759Z,14.84
2022-11-13T11:06:17.022Z,14.92
2022-11-13T11:09:32.703Z,14.97
2022-11-13T11:12:56.161Z,15.04
2022-11-13T11:16:10.136Z,15.08
2022-11-13T11:19:28.765Z,15.12
2022-11-13T11:22:42.712Z,15.18
2022-11-13T11:26:05.337Z,15.25
2022-11-13T11:29:23.483Z,15.29
2022-11-13T11:32:39.106Z,15.33
2022-11-13T11:35:56.446Z,15.38
2022-11-13T11:39:21.867Z,15.44
2022-11-13T11:42:41.815Z,15.46
2022-11-13T11:45:53.299Z,15.48
2022-11-13T11:49:05.110Z,15.52
2022-11-13T11:52:32.755Z,15.58
2022-11-13T11:56:19.621Z,15.62
2022-11-13T11:59:56.972Z,15.65
2022-11-13T12:03:47.953Z,15.67
2022-11-13T12:07:15.819Z,15.73
2022-11-13T12:10:38.396Z,15.77
2022-11-13T12:14:01.207Z,15.81
2022-11-13T12:17:28.013Z,15.83
2022-11-13T12:20:45.185Z,15.84
2022-11-13T12:24:12.877Z,15.86
2022-11-13T12:27:43.273Z,15.91
2022-11-13T12:31:06.338Z,15.92
2022-11-13T12:34:30.205Z,15.93
2022-11-13T12:37:53.066Z,15.95
2022-11-13T12:41:10.893Z,15.96
2022-11-13T12:44:29.043Z,15.95
2022-11-13T12:48:11.295Z,15.96
2022-11-13T12:51:22.164Z,16.00
2022-11-13T12:54:36.292Z,16.02
2022-11-13T12:57:51.939Z,16.03
2022-11-13T13:01:08.879Z,16.00
2022-11-13T13:04:42.440Z,15.96
2022-11-13T13:08:16.243Z,15.95
2022-11-13T13:11:39.033Z,15.91
2022-11-13T13:15:12.979Z,15.87
2022-11-13T13:18:32.611Z,15.84
2022-11-13T13:21:50.288Z,15.79
2022-11-13T13:25:14.224Z,15.74
2022-11-13T13:28:25.795Z,15.68
2022-11-13T13:31:47.824Z,15.62
2022-11-13T13:35:09.146Z,15.57
2022-11-13T13:38:28.471Z,15.53
2022-11-13T13:41:54.851Z,15.46
2022-11-13T13:45:24.929Z,15.39
2022-11-13T13:48:42.591Z,15.30
2022-11-13T13:51:57.069Z,15.22
2022-11-13T13:55:17.870Z,15.15
2022-11-13T13:58:32.871Z,15.05
2022-11-13T14:01:54.387Z,14.95
2022-11-13T14:05:18.820Z,14.86
2022-11-13T14:08:31.038Z,14.79
2022-11-13T14:11:42.546Z,14.70
2022-11-13T14:14:53.630Z,14.61
2022-11-13T14:18:13.965Z,14.52
2022-11-13T14:21:26.305Z,14.47
2022-11-13T14:24:37.337Z,14.40
2022-11-13T14:27:49.719Z,14.32
2022-11-13T14:31:04.016Z,14.24
2022-11-13T14:34:22.874Z,14.14
2022-11-13T14:37:38.032Z,14.05
2022-11-13T14:40:50.629Z,13.95
2022-11-13T14:44:02.410Z,13.87
2022-11-13T14:47:25.659Z,13.77
2022-11-13T14:50:38.196Z,13.66
2022-11-13T14:54:03.829Z,13.56
2022-11-13T14:57:18.950Z,13.45
2022-11-13T15:00:40.449Z,13.35
2022-11-13T15:03:52.573Z,13.23
2022-11-13T15:07:05.588Z,13.13
2022-11-13T15:10:16.211Z,13.02
2022-11-13T15:13:27.600Z,12.92
2022-11-13T15:16:39.477Z,12.82
2022-11-13T15:19:53.887Z,12.73
2022-11-13T15:23:04.786Z,12.62
2022-11-13T15:26:16.779Z,12.53
2022-11-13T15:29:27.682Z,12.44
2022-11-13T15:32:39.071Z,12.37
2022-11-13T15:35:52.015Z,12.29
2022-11-13T15:39:06.606Z,12.20
2022-11-13T15:42:28.583Z,12.13
2022-11-13T15:45:43.968Z,12.05
2022-11-13T15:48:58.306Z,11.93
2022-11-13T15:52:10.713Z,11.83
2022-11-13T15:55:28.870Z,11.72
2022-11-13T15:58:39.994Z,11.61
2022-11-13T16:01:56.648Z,11.51
2022-11-13T16:05:10.977Z,11.43
2022-11-13T16:08:21.874Z,11.34
2022-11-13T16:11:35.306Z,11.28
2022-11-13T16:14:46.775Z,11.22
2022-11-13T16:18:00.866Z,11.16
2022-11-13T16:21:14.349Z,11.11
2022-11-13T16:24:25.406Z,11.05
2022-11-13T16:27:36.849Z,10.98
2022-11-13T16:30:48.645Z,10.91
2022-11-13T16:33:59.402Z,10.84
2022-11-13T16:37:17.430Z,10.76
2022-11-13T16:40:29.423Z,10.68
2022-11-13T16:43:40.840Z,10.62
2022-11-13T16:46:53.490Z,10.55
2022-11-13T16:50:04.427Z,10.50
2022-11-13T16:53:15.099Z,10.44
2022-11-13T16:56:30.808Z,10.39
2022-11-13T16:59:42.101Z,10.31
2022-11-13T17:02:55.348Z,10.22
2022-11-13T17:06:07.042Z,10.16
2022-11-13T17:09:18.530Z,10.07
2022-11-13T17:12:29.437Z,9.98
2022-11-13T17:15:40.254Z,9.91
2022-11-13T17:18:53.563Z,9.80
2022-11-13T17:22:04.631Z,9.72
2022-11-13T17:25:15.098Z,9.63
2022-11-13T17:28:26.147Z,9.54
2022-11-13T17:31:37.297Z,9.47
2022-11-13T17:34:49.224Z,9.39
2022-11-13T17:38:00.079Z,9.31
2022-11-13T17:41:13.682Z,9.21
2022-11-13T17:44:24.639Z,9.13
2022-11-13T17:47:38.348Z,9.06
2022-11-13T17:50:56.802Z,8.96
2022-11-13T17:54:07.698Z,8.90
2022-11-13T17:57:21.561Z,8.83
2022-11-13T18:00:37.285Z,8.74
2022-11-13T18:03:48.862Z,8.64
2022-11-13T18:07:00.114Z,8.58
2022-11-13T18:10:13.160Z,8.49
2022-11-13T18:13:23.758Z,8.41
2022-11-13T18:16:35.684Z,8.33
2022-11-13T18:19:47.028Z,8.26
2022-11-13T18:22:58.871Z,8.18
2022-11-13T18:26:14.669Z,8.09
2022-11-13T18:29:26.151Z,8.01
2022-11-13T18:32:37.094Z,7.94
2022-11-13T18:35:48.296Z,7.84
2022-11-13T18:38:59.481Z,7.78
2022-11-13T18:42:10.655Z,7.70
2022-11-13T18:45:22.143Z,7.63
2022-11-13T18:48:38.550Z,7.56
2022-11-13T18:51:49.828Z,7.48
2022-11-13T18:55:01.004Z,7.40
2022-11-13T18:58:11.984Z,7.33
2022-11-13T19:01:27.217Z,7.27
2022-11-13T19:04:40.059Z,7.19
2022-11-13T19:07:51.157Z,7.12
2022-11-13T19:11:10.701Z,7.08
2022-11-13T19:14:22.532Z,7.01
2022-11-13T19:17:33.099Z,6.95
2022-11-13T19:20:44.530Z,6.89
2022-11-13T19:23:56.988Z,6.84
2022-11-13T19:27:07.660Z,6.78
2022-11-13T19:30:21.582Z,6.73
2022-11-13T19:33:33.436Z,6.67
2022-11-13T19:36:45.213Z,6.60
2022-11-13T19:39:56.679Z,6.57
2022-11-13T19:43:07.614Z,6.51
2022-11-13T19:46:20.980Z,6.46
2022-11-13T19:49:34.606Z,6.39
2022-11-13T19:52:47.191Z,6.35
2022-11-13T19:55:58.985Z,6.30
2022-11-13T19:59:12.868Z,6.23
2022-11-13T20:02:24.406Z,6.19
2022-11-13T20:05:35.524Z,6.14
2022-11-13T20:08:46.510Z,6.10
2022-11-13T20:11:57.596Z,6.05
2022-11-13T20:15:11.779Z,6.00
2022-11-13T20:18:24.152Z,5.95
2022-11-13T20:21:35.024Z,5.91
2022-11-13T20:24:46.517Z,5.87
2022-11-13T20:27:57.363Z,5.82
2022-11-13T20:31:14.359Z,5.80
2022-11-13T20:34:26.097Z,5.75
2022-11-13T20:37:37.845Z,5.72
2022-11-13T20:40:48.262Z,5.69
2022-11-13T20:44:02.025Z,5.66
2022-11-13T20:47:12.925Z,5.63
2022-11-13T20:50:24.109Z,5.61
2022-11-13T20:53:35.689Z,5.58
2022-11-13T20:56:47.171Z,5.56
2022-11-13T20:59:59.018Z,5.53
2022-11-13T21:03:10.211Z,5.51
2022-11-13T21:06:22.203Z,5.48
2022-11-13T21:09:33.108Z,5.45
2022-11-13T21:12:44.551Z,5.42
2022-11-13T21:15:56.245Z,5.40
2022-11-13T21:19:08.534Z,5.38
2022-11-13T21:22:20.345Z,5.35
2022-11-13T21:25:31.935Z,5.32
2022-11-13T21:28:43.054Z,5.26
2022-11-13T21:31:54.089Z,5.24
2022-11-13T21:35:05.399Z,5.20
2022-11-13T21:38:16.942Z,5.17
2022-11-13T21:41:28.758Z,5.14
2022-11-13T21:44:40.088Z,5.12
2022-11-13T21:47:51.117Z,5.10
2022-11-13T21:51:02.628Z,5.07
2022-11-13T21:54:15.755Z,5.04
2022-11-13T21:57:27.237Z,5.01
2022-11-13T22:00:38.677Z,4.98
2022-11-13T22:03:49.235Z,4.97
2022-11-13T22:07:00.558Z,4.94
2022-11-13T22:10:12.553Z,4.90
2022-11-13T22:13:23.281Z,4.89
2022-11-13T22:16:37.281Z,4.85
2022-11-13T22:19:48.174Z,4.84
2022-11-13T22:23:00.004Z,4.82
2022-11-13T22:26:14.346Z,4.81
2022-11-13T22:29:25.616Z,4.79
2022-11-13T22:32:36.459Z,4.77
2022-11-13T22:35:48.134Z,4.75
2022-11-13T22:39:00.171Z,4.73
2022-11-13T22:42:11.270Z,4.73
2022-11-13T22:45:24.011Z,4.71
2022-11-13T22:48:37.154Z,4.67
2022-11-13T22:51:47.765Z,4.67
2022-11-13T22:55:02.343Z,4.63
2022-11-13T22:58:13.125Z,4.63
2022-11-13T23:01:25.685Z,4.60
2022-11-13T23:04:36.843Z,4.59
2022-11-13T23:07:48.709Z,4.58
2022-11-13T23:11:01.294Z,4.55
2022-11-13T23:14:15.939Z,4.53
2022-11-13T23:17:27.503Z,4.51
2022-11-13T23:20:42.679Z,4.50
2022-11-13T23:23:54.373Z,4.48
2022-11-13T23:27:05.651Z,4.45
2022-11-13T23:30:18.586Z,4.44
2022-11-13T23:33:30.372Z,4.42
2022-11-13T23:36:41.050Z,4.32
2022-11-13T23:39:52.828Z,4.28
2022-11-13T23:43:03.728Z,4.26
2022-11-13T23:46:14.982Z,4.24
2022-11-13T23:49:26.093Z,4.25
2022-11-13T23:52:37.752Z,4.25
2022-11-13T23:55:48.749Z,4.25
2022-11-13T23:58:59.701Z,4.27
